Latest Weather Observations for Hindmarsh Island

IDS60901

Issued at 9:11 pm CST Friday 26 April 2019 (issued every 10 minutes, with the page automatically refreshed every 10 minutes)

About weather observations | Map of Adelaide area stations | Latest observations for Adelaide area | Other Formats
Station Details ID: 023894 Name: HINDMARSH ISLAND AWS Lat: -35.52 Lon: 138.82 Height: 11.0 m
Data from the previous 72 hours. | See also: Recent months at Hindmarsh Island
Date/Time
CST
Temp
°C
App
Temp
°C
Dew
Point
°C
Rel
Hum
%
Delta-T
°C
Wind Press
QNH
hPa
Press
MSL
hPa
Rain since
9am
mm
Dir  Spd
km/h
Gust
km/h
Spd
kts
Gust
kts
26/09:00pm 14.8 8.6 6.1 56 4.1 S 28 33 15 18 1027.7 1027.7 0.0
26/08:30pm 14.8 7.6 4.8 51 4.6 SSW 32 39 17 21 1027.4 1027.4 0.0
26/08:00pm 14.8 9.5 6.9 59 3.9 S 24 32 13 17 1027.3 1027.3 0.0
26/07:30pm 14.7 8.3 7.0 60 3.7 S 30 33 16 18 1027.2 1027.2 0.0
26/07:00pm 15.0 8.8 6.0 55 4.3 S 28 35 15 19 1026.7 1026.7 0.0
26/06:30pm 14.9 7.9 6.0 55 4.2 S 32 37 17 20 1026.3 1026.3 0.0
26/06:00pm 14.8 7.5 5.3 53 4.5 S 33 41 18 22 1025.9 1025.9 0.0
26/05:30pm 14.8 7.6 5.1 52 4.5 S 32 43 17 23 1025.8 1025.8 0.0
26/05:00pm 15.0 7.0 5.8 54 4.4 S 37 44 20 24 1025.5 1025.5 0.0
26/04:30pm 15.1 7.5 5.9 54 4.4 SSW 35 44 19 24 1025.4 1025.4 0.0
26/04:00pm 15.3 7.5 6.8 57 4.2 SSW 37 46 20 25 1025.2 1025.2 0.0
26/03:30pm 15.4 8.0 6.7 56 4.2 SSW 35 43 19 23 1025.1 1025.1 0.0
26/03:00pm 15.8 7.7 6.8 55 4.4 SSW 39 48 21 26 1024.7 1024.7 0.0
26/02:30pm 16.0 8.4 5.9 51 4.8 SSW 35 44 19 24 1024.5 1024.5 0.0
26/02:00pm 15.9 7.4 6.9 55 4.4 SSW 41 50 22 27 1024.3 1024.3 0.0
26/01:30pm 15.9 7.8 6.9 55 4.4 SSW 39 46 21 25 1024.3 1024.3 0.0
26/01:00pm 16.1 8.4 7.1 55 4.5 SSW 37 44 20 24 1024.4 1024.4 0.0
26/12:30pm 16.2 9.5 7.2 55 4.4 SW 32 43 17 23 1024.8 1024.8 0.0
26/12:00pm 16.6 9.8 7.0 53 4.7 SW 32 41 17 22 1025.0 1025.0 0.0
26/11:30am 16.2 7.6 6.6 53 4.7 SSW 41 52 22 28 1024.9 1024.9 0.0
26/11:00am 16.5 8.0 6.9 53 4.7 SSW 41 50 22 27 1024.7 1024.7 0.0
26/10:30am 16.4 7.7 7.6 56 4.4 SSW 43 54 23 29 1024.5 1024.5 0.0
26/10:00am 16.8 8.1 8.5 58 4.2 SSW 44 52 24 28 1024.1 1024.1 0.0
26/09:30am 16.2 8.3 7.7 57 4.2 SW 39 46 21 25 1024.1 1024.1 0.0
26/09:00am 16.0 7.4 8.2 60 3.9 SSW 43 50 23 27 1023.5 1023.5 0.4
26/08:30am 15.8 7.4 9.0 64 3.5 SSW 43 52 23 28 1023.4 1023.4 0.4
26/08:00am 15.4 7.7 10.0 70 2.8 SW 41 52 22 28 1023.1 1023.1 0.4
26/07:30am 14.4 6.8 10.4 77 2.1 SW 41 54 22 29 1022.5 1022.5 0.4
26/07:00am 14.7 7.8 11.5 81 1.7 SW 39 50 21 27 1022.1 1022.1 0.4
26/06:37am 15.5 10.7 11.7 78 2.1 WSW 28 46 15 25 1021.8 1021.8 0.0
26/06:30am 14.9 11.6 10.9 77 2.1 W 19 26 10 14 1021.9 1021.9 0.0
26/06:00am 15.2 9.9 11.4 78 2.0 WSW 30 50 16 27 1021.3 1021.3 0.0
26/05:55am 15.2 10.3 11.2 77 2.1 WSW 28 50 15 27 1021.3 1021.3 0.0
26/05:30am 14.9 9.6 11.3 79 1.9 SW 30 41 16 22 1021.3 1021.3 0.0
26/05:08am 15.4 10.6 11.6 78 2.0 WSW 28 46 15 25 1021.3 1021.3 0.0
26/05:00am 15.9 11.6 10.7 71 2.8 W 24 35 13 19 1021.2 1021.2 0.0
26/04:30am 15.9 11.3 11.1 73 2.6 WSW 26 35 14 19 1021.1 1021.1 0.0
26/04:00am 15.9 10.1 11.5 75 2.4 WSW 33 48 18 26 1020.8 1020.8 0.0
26/03:44am 16.3 11.3 11.0 71 2.8 WSW 28 46 15 25 1020.5 1020.5 0.0
26/03:30am 16.3 11.3 11.0 71 2.8 W 28 37 15 20 1020.6 1020.6 0.0
26/03:00am 16.8 12.8 10.4 66 3.4 W 22 39 12 21 1020.7 1020.7 0.0
26/02:30am 16.7 12.7 10.3 66 3.4 WSW 22 32 12 17 1020.6 1020.6 0.0
26/02:00am 16.4 12.7 10.3 67 3.2 W 20 28 11 15 1020.6 1020.6 0.0
26/01:30am 15.9 12.7 10.0 68 3.1 W 17 20 9 11 1020.7 1020.7 0.0
26/01:00am 16.2 12.4 9.8 66 3.3 W 20 28 11 15 1021.3 1021.3 0.0
26/12:30am 15.7 12.2 8.7 63 3.6 W 17 22 9 12 1021.5 1021.5 0.0
26/12:00am 16.0 12.1 8.5 61 3.8 WNW 19 26 10 14 1021.5 1021.5 0.0
 
Date/Time
CST
Temp
°C
App
Temp
°C
Dew
Point
°C
Rel
Hum
%
Delta-T
°C
Wind Press
QNH
hPa
Press
MSL
hPa
Rain since
9am
mm
Dir  Spd
km/h
Gust
km/h
Spd
kts
Gust
kts
25/11:30pm 16.3 11.7 8.3 59 4.0 W 22 32 12 17 1021.7 1021.7 0.0
25/11:00pm 16.5 12.0 8.5 59 4.1 WNW 22 32 12 17 1021.8 1021.8 0.0
25/10:30pm 16.3 12.1 8.3 59 4.0 WNW 20 26 11 14 1022.0 1022.0 0.0
25/10:00pm 16.7 11.9 8.7 59 4.1 W 24 39 13 21 1022.3 1022.3 0.0
25/09:30pm 16.9 13.0 9.3 61 3.9 WSW 20 30 11 16 1022.2 1022.2 0.0
25/09:00pm 16.7 13.5 9.9 64 3.6 W 17 24 9 13 1022.1 1022.1 0.0
25/08:30pm 16.7 13.0 9.4 62 3.8 W 19 26 10 14 1021.9 1021.9 0.0
25/08:00pm 16.7 13.0 9.6 63 3.7 W 19 26 10 14 1021.9 1021.9 0.0
25/07:30pm 16.3 12.4 9.5 64 3.5 W 20 24 11 13 1021.8 1021.8 0.0
25/07:00pm 16.7 12.1 9.6 63 3.7 W 24 32 13 17 1021.6 1021.6 0.0
25/06:30pm 16.9 12.2 9.1 60 4.0 W 24 37 13 20 1021.3 1021.3 0.0
25/06:00pm 17.4 13.1 9.3 59 4.2 W 22 32 12 17 1021.1 1021.1 0.0
25/05:30pm 18.2 14.7 10.1 59 4.3 W 19 30 10 16 1021.5 1021.5 0.0
25/05:00pm 18.2 14.3 12.0 67 3.4 SW 24 28 13 15 1021.3 1021.3 0.0
25/04:30pm 20.0 14.8 8.7 48 5.9 W 26 35 14 19 1021.0 1021.0 0.0
25/04:00pm 19.3 16.0 12.8 66 3.7 SSW 22 28 12 15 1021.2 1021.2 0.0
25/03:30pm 20.9 15.2 8.2 44 6.6 W 28 41 15 22 1021.3 1021.3 0.0
25/03:00pm 20.8 14.4 8.4 45 6.5 WNW 32 41 17 22 1021.0 1021.0 0.0
25/02:30pm 20.3 15.4 10.1 52 5.5 W 26 37 14 20 1021.3 1021.3 0.0
25/02:00pm 19.6 15.1 11.4 59 4.5 WSW 26 35 14 19 1021.4 1021.4 0.0
25/01:30pm 20.8 17.7 10.3 51 5.7 WSW 17 28 9 15 1021.6 1021.6 0.0
25/01:00pm 20.3 17.0 11.0 55 5.1 W 19 28 10 15 1022.5 1022.5 0.0
25/12:30pm 19.8 15.7 10.2 54 5.1 W 22 33 12 18 1023.0 1023.0 0.0
25/12:00pm 20.0 17.2 10.1 53 5.3 WSW 15 24 8 13 1023.6 1023.6 0.0
25/11:30am 20.3 17.4 11.0 55 5.1 WSW 17 24 9 13 1024.1 1024.1 0.0
25/11:00am 20.0 16.6 10.7 55 5.1 W 19 24 10 13 1024.4 1024.4 0.0
25/10:30am 18.9 15.3 10.7 59 4.4 W 20 28 11 15 1024.6 1024.6 0.0
25/10:00am 18.8 16.1 11.6 63 4.0 WSW 17 24 9 13 1024.9 1024.9 0.0
25/09:30am 18.2 15.4 11.3 64 3.7 W 17 22 9 12 1025.0 1025.0 0.0
25/09:00am 17.8 15.1 11.6 67 3.4 W 17 22 9 12 1025.1 1025.1 0.0
25/08:30am 16.6 14.8 12.2 75 2.4 W 13 19 7 10 1024.9 1024.9 0.0
25/08:00am 15.4 13.4 11.6 78 2.0 W 13 19 7 10 1024.8 1024.8 0.0
25/07:30am 13.5 11.5 10.3 81 1.7 WNW 11 13 6 7 1024.7 1024.7 0.0
25/07:00am 12.9 10.8 9.9 82 1.5 WNW 11 11 6 6 1024.4 1024.4 0.0
25/06:30am 13.6 11.6 10.2 80 1.8 WNW 11 15 6 8 1024.3 1024.3 0.0
25/06:00am 14.3 11.6 10.3 77 2.1 W 15 20 8 11 1024.2 1024.2 0.0
25/05:30am 14.5 11.9 10.7 78 2.0 W 15 17 8 9 1024.0 1024.0 0.0
25/05:00am 13.5 11.7 10.7 83 1.5 W 11 15 6 8 1024.0 1024.0 0.0
25/04:30am 12.9 10.7 9.4 79 1.8 WNW 11 15 6 8 1023.8 1023.8 0.0
25/04:00am 12.8 10.5 9.1 78 1.9 NW 11 13 6 7 1023.8 1023.8 0.0
25/03:30am 13.2 11.4 9.5 78 1.9 NW 9 11 5 6 1023.9 1023.9 0.0
25/03:00am 13.2 11.1 9.6 79 1.8 WNW 11 13 6 7 1024.0 1024.0 0.0
25/02:30am 12.9 10.7 9.4 79 1.8 WNW 11 15 6 8 1024.2 1024.2 0.0
25/02:00am 12.8 10.2 9.3 79 1.8 WNW 13 13 7 7 1024.3 1024.3 0.0
25/01:30am 12.9 10.7 9.4 79 1.8 WNW 11 13 6 7 1024.5 1024.5 0.0
25/01:00am 12.9 10.7 9.2 78 1.9 WNW 11 13 6 7 1024.7 1024.7 0.0
25/12:30am 13.4 11.2 9.5 77 2.0 WNW 11 15 6 8 1024.8 1024.8 0.0
25/12:00am 14.1 12.0 9.9 76 2.2 WNW 11 15 6 8 1025.1 1025.1 0.0
 
Date/Time
CST
Temp
°C
App
Temp
°C
Dew
Point
°C
Rel
Hum
%
Delta-T
°C
Wind Press
QNH
hPa
Press
MSL
hPa
Rain since
9am
mm
Dir  Spd
km/h
Gust
km/h
Spd
kts
Gust
kts
24/11:30pm 15.9 12.4 10.2 69 3.0 SSW 19 22 10 12 1025.4 1025.4 0.0
24/11:00pm 15.9 12.8 10.2 69 3.0 SW 17 24 9 13 1025.7 1025.7 0.0
24/10:30pm 16.1 12.6 10.2 68 3.1 SSW 19 24 10 13 1026.0 1026.0 0.0
24/10:00pm 15.9 12.7 10.0 68 3.1 SSW 17 20 9 11 1026.1 1026.1 0.0
24/09:30pm 15.9 12.2 10.2 69 3.0 SSW 20 24 11 13 1026.0 1026.0 0.0
24/09:00pm 15.7 12.5 10.0 69 3.0 SSW 17 20 9 11 1025.9 1025.9 0.0
24/08:30pm 15.9 12.3 10.0 68 3.1 SW 19 24 10 13 1025.9 1025.9 0.0
24/08:00pm 16.0 12.6 10.7 71 2.8 SW 19 22 10 12 1025.9 1025.9 0.0
24/07:30pm 16.0 12.6 10.7 71 2.8 SW 19 24 10 13 1025.8 1025.8 0.0
24/07:00pm 16.5 13.0 11.0 70 2.9 SW 20 22 11 12 1025.8 1025.8 0.0
24/06:30pm 16.5 13.9 11.9 74 2.5 SSW 17 20 9 11 1025.6 1025.6 0.0
24/06:00pm 16.4 13.2 11.8 74 2.5 SSW 20 24 11 13 1025.4 1025.4 0.0
24/05:30pm 16.7 13.4 11.6 72 2.8 SW 20 24 11 13 1025.2 1025.2 0.0
24/05:00pm 17.9 14.8 11.5 66 3.5 SSW 19 22 10 12 1025.1 1025.1 0.0
24/04:30pm 17.6 14.3 10.9 65 3.6 SSW 19 24 10 13 1024.9 1024.9 0.0
24/04:00pm 17.6 14.2 10.5 63 3.8 S 19 22 10 12 1024.9 1024.9 0.0
24/03:30pm 18.0 14.6 10.4 61 4.0 SSW 19 22 10 12 1025.0 1025.0 0.0
24/03:00pm 18.1 14.4 10.2 60 4.2 SSW 20 24 11 13 1025.0 1025.0 0.0
24/02:30pm 17.8 13.8 10.4 62 3.9 SW 22 30 12 16 1025.1 1025.1 0.0
24/02:00pm 17.5 13.2 10.9 65 3.6 SW 24 32 13 17 1025.3 1025.3 0.0
24/01:30pm 17.4 13.8 11.7 69 3.1 SW 22 30 12 16 1025.4 1025.4 0.0
24/01:00pm 17.9 14.6 11.5 66 3.5 SSW 20 24 11 13 1025.4 1025.4 0.0
24/12:30pm 18.4 15.3 11.5 64 3.8 SSW 19 22 10 12 1025.7 1025.7 0.0
24/12:00pm 18.6 15.3 10.9 61 4.1 S 19 22 10 12 1025.9 1025.9 0.0
24/11:30am 18.4 16.6 10.8 61 4.1 SSW 11 15 6 8 1026.1 1026.1 0.0
24/11:00am 18.3 17.2 10.7 61 4.1 S 7 11 4 6 1026.1 1026.1 0.0
24/10:30am 18.0 17.2 11.1 64 3.7 NNW 6 9 3 5 1026.4 1026.4 0.0
24/10:00am 17.3 16.5 10.9 66 3.4 NNW 6 9 3 5 1026.5 1026.5 0.0
24/09:30am 16.2 15.3 10.5 69 3.0 N 6 9 3 5 1026.9 1026.9 0.0
24/09:00am 15.0 13.5 10.6 75 2.3 NNW 9 11 5 6 1026.8 1026.8 0.0
24/08:30am 13.7 12.2 10.5 81 1.7 NNW 9 13 5 7 1026.9 1026.9 0.0
24/08:00am 12.5 10.9 10.2 86 1.2 N 9 13 5 7 1026.5 1026.5 0.0
24/07:30am 11.6 9.9 9.9 89 0.9 N 9 11 5 6 1026.4 1026.4 0.0
24/07:00am 10.7 8.7 8.8 88 0.9 N 9 11 5 6 1026.0 1026.0 0.0
24/06:30am 10.9 8.2 9.0 88 0.9 N 13 15 7 8 1025.6 1025.6 0.0
24/06:00am 11.4 8.8 9.5 88 1.0 N 13 17 7 9 1025.7 1025.7 0.0
24/05:30am 11.7 9.2 9.6 87 1.1 N 13 15 7 8 1025.5 1025.5 0.0
24/05:00am 12.2 10.1 9.9 86 1.2 NNW 11 13 6 7 1025.8 1025.8 0.0
24/04:30am 12.2 9.8 9.9 86 1.2 N 13 15 7 8 1025.6 1025.6 0.0
24/04:00am 12.2 10.1 9.8 85 1.2 N 11 13 6 7 1025.4 1025.4 0.0
24/03:30am 12.5 10.5 10.0 85 1.3 N 11 13 6 7 1025.4 1025.4 0.0
24/03:00am 12.7 10.6 9.9 83 1.4 N 11 11 6 6 1025.4 1025.4 0.0
24/02:30am 13.5 12.0 10.5 82 1.6 N 9 11 5 6 1025.6 1025.6 0.0
24/02:00am 13.5 12.0 10.5 82 1.6 N 9 11 5 6 1025.8 1025.8 0.0
24/01:30am 13.6 12.1 10.6 82 1.6 NNE 9 9 5 5 1026.0 1026.0 0.0
24/01:00am 13.8 12.2 10.2 79 1.9 NE 9 11 5 6 1025.9 1025.9 0.0
24/12:30am 14.5 13.0 10.5 77 2.1 NE 9 9 5 5 1026.2 1026.2 0.0
24/12:00am 15.8 13.4 11.4 75 2.4 SE 15 17 8 9 1026.4 1026.4 0.0
 
Date/Time
CST
Temp
°C
App
Temp
°C
Dew
Point
°C
Rel
Hum
%
Delta-T
°C
Wind Press
QNH
hPa
Press
MSL
hPa
Rain since
9am
mm
Dir  Spd
km/h
Gust
km/h
Spd
kts
Gust
kts
23/11:30pm 15.8 13.0 11.4 75 2.4 SE 17 20 9 11 1026.4 1026.4 0.0
23/11:00pm 16.0 13.2 11.4 74 2.5 SSE 17 20 9 11 1026.6 1026.6 0.0
23/10:30pm 15.9 13.1 11.3 74 2.5 SE 17 20 9 11 1026.8 1026.8 0.0
23/10:00pm 15.9 12.8 11.5 75 2.4 SSE 19 22 10 12 1026.9 1026.9 0.0
23/09:30pm 15.6 12.3 10.8 73 2.5 SE 19 22 10 12 1027.0 1027.0 0.0

Latest Capital City Observations: Canberra | Sydney | Melbourne | Brisbane | Adelaide | Perth | Hobart | Darwin

Other formats

Comma delimited format used in spreadsheet applications
http://www.bom.gov.au/fwo/IDS60901/IDS60901.94677.axf

JavaScript Object Notation format (JSON) in row-major order
http://www.bom.gov.au/fwo/IDS60901/IDS60901.94677.json

Data quality

Most of these data are generated automatically and are frequently updated. Quality checks on data are not normally performed. It is possible for incorrect values to appear. Refer to information at About Latest Weather Observations and please check the disclaimer before using these data.